createdAt,value
2024-04-21T00:03:49.723Z,2.83
2024-04-21T00:08:46.350Z,2.61
2024-04-21T00:13:43.013Z,2.69
2024-04-21T00:18:39.560Z,2.66
2024-04-21T00:23:38.540Z,2.52
2024-04-21T00:28:35.111Z,2.54
2024-04-21T00:33:31.675Z,2.54
2024-04-21T00:38:28.267Z,2.46
2024-04-21T00:43:24.840Z,2.55
2024-04-21T00:48:22.543Z,2.57
2024-04-21T00:53:21.069Z,2.50
2024-04-21T00:58:17.918Z,2.51
2024-04-21T01:03:14.683Z,2.43
2024-04-21T01:08:11.306Z,2.41
2024-04-21T01:13:12.183Z,2.34
2024-04-21T01:18:09.459Z,2.27
2024-04-21T01:23:06.097Z,2.23
2024-04-21T01:28:02.744Z,2.21
2024-04-21T01:33:02.239Z,2.12
2024-04-21T01:37:59.052Z,2.03
2024-04-21T01:42:55.615Z,1.92
2024-04-21T01:47:52.295Z,1.86
2024-04-21T01:52:49.282Z,1.85
2024-04-21T01:57:46.769Z,1.82
2024-04-21T02:02:43.436Z,1.86
2024-04-21T02:07:40.057Z,1.82
2024-04-21T02:12:36.659Z,1.87
2024-04-21T02:17:33.357Z,1.90
2024-04-21T02:22:29.954Z,1.48
2024-04-21T02:27:26.509Z,1.04
2024-04-21T02:32:23.050Z,0.48
2024-04-21T02:37:20.036Z,0.24
2024-04-21T02:42:16.608Z,0.16
2024-04-21T02:47:13.153Z,0.22
2024-04-21T02:52:09.749Z,0.21
2024-04-21T02:57:06.260Z,0.18
2024-04-21T03:02:03.164Z,0.22
2024-04-21T03:06:59.661Z,0.20
2024-04-21T03:11:56.518Z,0.26
2024-04-21T03:16:53.038Z,0.32
2024-04-21T03:21:51.181Z,0.42
2024-04-21T03:26:47.881Z,0.33
2024-04-21T03:31:45.258Z,0.23
2024-04-21T03:36:41.758Z,0.23
2024-04-21T03:41:38.303Z,0.13
2024-04-21T03:46:34.835Z,0.13
2024-04-21T03:51:31.343Z,0.12
2024-04-21T03:56:27.908Z,0.17
2024-04-21T04:01:24.706Z,0.20
2024-04-21T04:06:22.558Z,0.26
2024-04-21T04:11:19.166Z,0.33
2024-04-21T04:16:15.737Z,0.31
2024-04-21T04:21:12.342Z,0.42
2024-04-21T04:26:10.678Z,0.50
2024-04-21T04:31:07.512Z,0.57
2024-04-21T04:36:04.358Z,0.67
2024-04-21T04:41:00.934Z,0.86
2024-04-21T04:45:57.457Z,0.83
2024-04-21T04:50:54.003Z,0.82
2024-04-21T04:55:50.524Z,0.73
2024-04-21T05:00:47.191Z,0.79
2024-04-21T05:05:43.914Z,0.81
2024-04-21T05:10:41.072Z,0.84
2024-04-21T05:15:37.591Z,1.04
2024-04-21T05:20:34.139Z,1.09
2024-04-21T05:25:30.748Z,1.12
2024-04-21T05:30:27.401Z,1.16
2024-04-21T05:35:23.894Z,1.42
2024-04-21T05:40:20.445Z,1.42
2024-04-21T05:45:17.070Z,1.58
2024-04-21T05:50:13.572Z,1.65
2024-04-21T05:55:10.141Z,1.77
2024-04-21T06:00:07.615Z,1.70
2024-04-21T06:05:05.280Z,1.81
2024-04-21T06:10:02.062Z,1.83
2024-04-21T06:14:59.029Z,1.96
2024-04-21T06:19:55.576Z,2.17
2024-04-21T06:24:52.170Z,2.43
2024-04-21T06:29:48.735Z,2.39
2024-04-21T06:34:45.303Z,2.44
2024-04-21T06:39:42.101Z,2.50
2024-04-21T06:44:39.421Z,2.79
2024-04-21T06:49:38.676Z,3.02
2024-04-21T06:54:35.360Z,3.11
2024-04-21T06:59:31.949Z,3.00
2024-04-21T07:04:29.539Z,3.17
2024-04-21T07:09:26.806Z,3.31
2024-04-21T07:14:23.348Z,3.83
2024-04-21T07:19:19.956Z,4.18
2024-04-21T07:24:16.658Z,4.02
2024-04-21T07:29:14.041Z,3.81
2024-04-21T07:34:10.703Z,4.01
2024-04-21T07:39:07.298Z,4.34
2024-04-21T07:44:04.030Z,4.41
2024-04-21T07:49:03.022Z,4.31
2024-04-21T07:54:00.344Z,4.67
2024-04-21T07:58:56.937Z,4.34
2024-04-21T08:03:53.549Z,4.53
2024-04-21T08:08:55.033Z,4.82
2024-04-21T08:13:54.750Z,4.47
2024-04-21T08:18:51.814Z,4.57
2024-04-21T08:23:48.446Z,4.75
2024-04-21T08:28:45.006Z,5.39
2024-04-21T08:33:41.529Z,6.44
2024-04-21T08:38:38.098Z,6.72
2024-04-21T08:43:35.943Z,6.38
2024-04-21T08:48:32.808Z,6.11
2024-04-21T08:53:29.521Z,6.10
2024-04-21T08:58:27.206Z,6.36
2024-04-21T09:03:24.109Z,6.85
2024-04-21T09:08:20.720Z,6.63
2024-04-21T09:13:18.026Z,7.16
2024-04-21T09:18:14.620Z,6.94
2024-04-21T09:23:11.188Z,6.29
2024-04-21T09:28:07.753Z,6.72
2024-04-21T09:33:07.660Z,6.39
2024-04-21T09:38:06.195Z,6.51
2024-04-21T09:43:05.380Z,6.70
2024-04-21T09:48:03.698Z,6.70
2024-04-21T09:53:02.147Z,7.40
2024-04-21T09:58:03.018Z,7.62
2024-04-21T10:03:03.893Z,8.13
2024-04-21T10:08:01.683Z,8.37
2024-04-21T10:12:59.228Z,8.30
2024-04-21T10:18:01.151Z,7.67
2024-04-21T10:23:02.743Z,7.15
2024-04-21T10:28:26.982Z,5.99
2024-04-21T10:33:29.213Z,6.05
2024-04-21T10:38:26.488Z,6.22
2024-04-21T10:43:26.240Z,6.56
2024-04-21T10:48:24.109Z,6.59
2024-04-21T10:53:21.054Z,6.73
2024-04-21T10:58:20.766Z,6.60
2024-04-21T11:03:18.241Z,6.24
2024-04-21T11:08:14.962Z,7.28
2024-04-21T11:13:11.526Z,8.08
2024-04-21T11:18:08.172Z,7.66
2024-04-21T11:23:05.311Z,7.12
2024-04-21T11:28:12.696Z,7.48
2024-04-21T11:33:09.647Z,7.94
2024-04-21T11:38:06.392Z,8.34
2024-04-21T11:43:02.990Z,7.42
2024-04-21T11:48:01.584Z,7.19
2024-04-21T11:52:58.265Z,7.44
2024-04-21T11:57:54.845Z,8.55
2024-04-21T12:02:52.154Z,8.91
2024-04-21T12:07:48.694Z,9.58
2024-04-21T12:12:45.239Z,9.86
2024-04-21T12:17:41.836Z,9.37
2024-04-21T12:22:38.658Z,8.31
2024-04-21T12:27:35.210Z,7.92
2024-04-21T12:32:31.775Z,7.93
2024-04-21T12:37:28.356Z,7.55
2024-04-21T12:42:25.134Z,7.65
2024-04-21T12:47:22.001Z,7.90
2024-04-21T12:52:18.769Z,8.58
2024-04-21T12:57:15.421Z,9.28
2024-04-21T13:02:12.672Z,9.78
2024-04-21T13:07:10.464Z,8.98
2024-04-21T13:12:07.691Z,8.92
2024-04-21T13:17:04.571Z,8.91
2024-04-21T13:22:02.475Z,9.12
2024-04-21T13:26:59.097Z,9.31
2024-04-21T13:31:55.644Z,10.02
2024-04-21T13:36:52.190Z,8.72
2024-04-21T13:41:48.793Z,9.40
2024-04-21T13:46:45.365Z,9.33
2024-04-21T13:51:41.892Z,9.45
2024-04-21T13:56:38.455Z,8.76
2024-04-21T14:01:35.277Z,8.91
2024-04-21T14:06:32.687Z,9.68
2024-04-21T14:11:30.368Z,9.12
2024-04-21T14:16:31.443Z,9.30
2024-04-21T14:21:28.486Z,9.16
2024-04-21T14:26:25.070Z,9.05
2024-04-21T14:31:21.690Z,8.93
2024-04-21T14:36:18.742Z,9.26
2024-04-21T14:41:16.277Z,8.86
2024-04-21T14:46:12.929Z,8.94
2024-04-21T14:51:09.595Z,9.83
2024-04-21T14:56:07.332Z,10.05
2024-04-21T15:01:04.249Z,9.41
2024-04-21T15:06:00.884Z,8.62
2024-04-21T15:10:58.938Z,8.56
2024-04-21T15:15:55.522Z,9.36
2024-04-21T15:20:52.108Z,9.50
2024-04-21T15:25:49.133Z,9.20
2024-04-21T15:30:45.688Z,8.58
2024-04-21T15:35:42.326Z,8.56
2024-04-21T15:40:38.971Z,8.94
2024-04-21T15:45:35.726Z,8.63
2024-04-21T15:50:32.262Z,8.57
2024-04-21T15:55:29.593Z,8.69
2024-04-21T16:00:26.395Z,8.71
2024-04-21T16:05:23.966Z,8.44
2024-04-21T16:10:20.603Z,8.20
2024-04-21T16:15:19.543Z,8.06
2024-04-21T16:20:17.801Z,8.10
2024-04-21T16:25:14.426Z,8.41
2024-04-21T16:30:11.094Z,9.33
2024-04-21T16:35:08.486Z,9.96
2024-04-21T16:40:05.609Z,11.33
2024-04-21T16:45:05.406Z,10.97
2024-04-21T16:50:02.791Z,15.14
2024-04-21T16:54:59.684Z,18.96
2024-04-21T16:59:56.779Z,20.04
2024-04-21T17:04:56.569Z,17.81
2024-04-21T17:09:53.731Z,17.71
2024-04-21T17:14:50.332Z,15.73
2024-04-21T17:19:47.373Z,14.11
2024-04-21T17:24:45.819Z,12.77
2024-04-21T17:29:42.326Z,10.88
2024-04-21T17:34:38.916Z,8.91
2024-04-21T17:39:35.590Z,7.93
2024-04-21T17:44:32.327Z,7.76
2024-04-21T17:49:30.027Z,7.84
2024-04-21T17:54:26.569Z,8.12
2024-04-21T17:59:23.199Z,9.70
2024-04-21T18:04:19.791Z,9.49
2024-04-21T18:09:16.394Z,7.92
2024-04-21T18:14:13.010Z,7.24
2024-04-21T18:19:09.556Z,6.68
2024-04-21T18:24:06.218Z,6.44
2024-04-21T18:29:02.712Z,6.16
2024-04-21T18:33:59.386Z,5.97
2024-04-21T18:38:55.960Z,5.69
2024-04-21T18:43:52.477Z,5.49
2024-04-21T18:48:48.983Z,5.15
2024-04-21T18:53:45.475Z,4.87
2024-04-21T18:58:42.208Z,4.61
2024-04-21T19:03:39.883Z,4.34
2024-04-21T19:08:36.493Z,4.13
2024-04-21T19:13:33.710Z,4.03
2024-04-21T19:18:31.564Z,3.93
2024-04-21T19:23:28.729Z,3.78
2024-04-21T19:28:25.282Z,3.62
2024-04-21T19:33:22.166Z,3.56
2024-04-21T19:38:18.662Z,3.37
2024-04-21T19:43:15.202Z,3.17
2024-04-21T19:54:31.378Z,2.58
2024-04-21T19:59:28.140Z,2.48
2024-04-21T20:04:24.737Z,2.55
2024-04-21T20:09:21.271Z,2.64
2024-04-21T20:14:17.945Z,3.18
2024-04-21T20:19:15.309Z,3.52
2024-04-21T20:24:11.928Z,3.78
2024-04-21T20:29:09.067Z,3.95
2024-04-21T20:34:05.679Z,3.91
2024-04-21T20:39:02.234Z,3.84
2024-04-21T20:43:58.800Z,3.77
2024-04-21T20:48:55.358Z,3.65
2024-04-21T20:53:51.920Z,3.54
2024-04-21T20:58:52.605Z,3.51
2024-04-21T21:03:50.640Z,3.43
2024-04-21T21:08:47.778Z,3.39
2024-04-21T21:13:44.623Z,3.37
2024-04-21T21:18:41.271Z,3.34
2024-04-21T21:23:37.781Z,3.18
2024-04-21T21:28:34.474Z,3.06
2024-04-21T21:33:31.191Z,3.01
2024-04-21T21:38:30.439Z,2.91
2024-04-21T21:43:27.026Z,2.81
2024-04-21T21:48:23.645Z,2.71
2024-04-21T21:53:20.529Z,2.62
2024-04-21T21:58:17.079Z,2.67
2024-04-21T22:03:13.688Z,2.57
2024-04-21T22:08:10.214Z,2.40
2024-04-21T22:13:07.082Z,2.28
2024-04-21T22:18:03.728Z,2.20
2024-04-21T22:23:00.267Z,2.13
2024-04-21T22:27:56.782Z,2.06
2024-04-21T22:32:54.713Z,2.04
2024-04-21T22:37:52.040Z,1.99
2024-04-21T22:42:48.660Z,1.94
2024-04-21T22:47:45.566Z,1.95
2024-04-21T22:52:42.547Z,1.87
2024-04-21T22:57:39.092Z,1.84
2024-04-21T23:02:35.641Z,1.93
2024-04-21T23:07:32.186Z,1.97
2024-04-21T23:12:28.854Z,1.86
2024-04-21T23:17:26.133Z,1.83
2024-04-21T23:22:22.740Z,1.84
2024-04-21T23:27:19.336Z,1.93
2024-04-21T23:32:15.861Z,2.01
2024-04-21T23:37:12.611Z,2.19
2024-04-21T23:42:09.195Z,2.22
2024-04-21T23:47:05.722Z,2.30
2024-04-21T23:52:02.210Z,2.39
2024-04-21T23:56:58.955Z,2.49
